createdAt,value
2022-09-05T00:02:03.347Z,102185.06
2022-09-05T00:04:46.553Z,102189.50
2022-09-05T00:07:34.395Z,102183.47
2022-09-05T00:10:35.963Z,102189.16
2022-09-05T00:13:09.913Z,102182.03
2022-09-05T00:15:49.977Z,102193.91
2022-09-05T00:22:23.790Z,102187.94
2022-09-05T00:24:36.940Z,102190.72
2022-09-05T00:24:50.192Z,102190.16
2022-09-05T00:27:49.956Z,102188.13
2022-09-05T00:31:08.690Z,102191.03
2022-09-05T00:33:41.351Z,102194.00
2022-09-05T00:36:29.180Z,102191.66
2022-09-05T00:39:10.503Z,102192.94
2022-09-05T00:41:37.777Z,102193.84
2022-09-05T00:44:06.366Z,102194.00
2022-09-05T00:46:38.978Z,102192.47
2022-09-05T00:49:24.313Z,102194.47
2022-09-05T00:51:55.569Z,102191.75
2022-09-05T00:54:40.363Z,102190.03
2022-09-05T00:57:41.321Z,102194.84
2022-09-05T01:00:17.339Z,102195.22
2022-09-05T01:03:22.360Z,102204.38
2022-09-05T01:06:15.342Z,102203.47
2022-09-05T01:09:07.576Z,102209.09
2022-09-05T01:11:56.762Z,102212.53
2022-09-05T01:15:01.132Z,102215.66
2022-09-05T01:17:27.821Z,102222.22
2022-09-05T01:20:29.850Z,102220.69
2022-09-05T01:23:19.600Z,102223.63
2022-09-05T01:25:48.979Z,102228.94
2022-09-05T01:29:18.566Z,102230.13
2022-09-05T01:32:03.572Z,102236.56
2022-09-05T01:35:25.744Z,102229.88
2022-09-05T01:38:06.680Z,102231.75
2022-09-05T01:41:01.252Z,102241.56
2022-09-05T01:44:01.595Z,102243.44
2022-09-05T01:46:43.675Z,102242.75
2022-09-05T01:49:30.020Z,102247.25
2022-09-05T01:52:15.616Z,102238.69
2022-09-05T01:55:03.128Z,102238.72
2022-09-05T01:57:40.059Z,102246.06
2022-09-05T02:00:16.318Z,102239.16
2022-09-05T02:03:06.260Z,102238.44
2022-09-05T02:05:51.918Z,102241.06
2022-09-05T02:08:34.086Z,102240.22
2022-09-05T02:11:05.329Z,102246.41
2022-09-05T02:13:51.369Z,102250.09
2022-09-05T02:16:20.963Z,102253.69
2022-09-05T02:19:14.940Z,102256.53
2022-09-05T02:21:57.558Z,102266.63
2022-09-05T02:24:36.360Z,102270.31
2022-09-05T02:27:48.931Z,102274.09
2022-09-05T02:30:10.840Z,102269.06
2022-09-05T02:32:48.274Z,102269.16
2022-09-05T02:35:46.022Z,102272.09
2022-09-05T02:39:09.206Z,102268.84
2022-09-05T02:45:10.984Z,102274.38
2022-09-05T02:45:19.432Z,102271.81
2022-09-05T02:47:22.615Z,102273.81
2022-09-05T02:57:22.979Z,102269.41
2022-09-05T02:57:33.867Z,102278.47
2022-09-05T02:57:35.753Z,102279.44
2022-09-05T02:59:10.078Z,102281.34
2022-09-05T03:01:58.668Z,102284.16
2022-09-05T03:04:37.888Z,102284.44
2022-09-05T03:07:07.768Z,102282.94
2022-09-05T03:09:40.520Z,102284.88
2022-09-05T03:12:35.321Z,102290.41
2022-09-05T03:15:22.412Z,102295.09
2022-09-05T03:18:20.598Z,102302.19
2022-09-05T03:21:15.918Z,102300.66
2022-09-05T03:24:04.183Z,102302.56
2022-09-05T03:26:52.721Z,102315.94
2022-09-05T03:29:41.940Z,102313.53
2022-09-05T03:32:48.943Z,102316.44
2022-09-05T03:35:31.045Z,102332.41
2022-09-05T03:38:22.931Z,102338.69
2022-09-05T03:41:09.778Z,102340.44
2022-09-05T03:43:49.914Z,102344.78
2022-09-05T03:46:36.073Z,102352.72
2022-09-05T03:50:35.881Z,102356.16
2022-09-05T03:57:10.814Z,102359.69
2022-09-05T03:57:14.074Z,102356.94
2022-09-05T03:58:57.564Z,102370.41
2022-09-05T04:03:04.150Z,102367.84
2022-09-05T04:08:24.100Z,102368.81
2022-09-05T04:08:24.162Z,102381.28
2022-09-05T04:10:47.484Z,102380.56
2022-09-05T04:13:25.293Z,102384.28
2022-09-05T04:16:11.972Z,102391.44
2022-09-05T04:19:13.744Z,102394.22
2022-09-05T04:22:22.182Z,102404.09
2022-09-05T04:25:03.878Z,102405.09
2022-09-05T04:27:36.804Z,102407.72
2022-09-05T04:30:38.484Z,102413.06
2022-09-05T04:33:15.753Z,102412.44
2022-09-05T04:36:17.676Z,102417.88
2022-09-05T04:38:46.068Z,102420.66
2022-09-05T04:41:18.212Z,102427.78
2022-09-05T04:43:51.335Z,102434.03
2022-09-05T04:46:33.612Z,102439.38
2022-09-05T04:49:24.279Z,102432.47
2022-09-05T04:52:28.174Z,102445.56
2022-09-05T04:55:05.839Z,102452.66
2022-09-05T04:57:45.150Z,102453.56
2022-09-05T05:05:58.241Z,102456.06
2022-09-05T05:06:15.299Z,102465.63
2022-09-05T05:09:07.000Z,102469.69
2022-09-05T05:17:58.897Z,102457.69
2022-09-05T05:18:00.614Z,102465.91
2022-09-05T05:18:36.752Z,102449.53
2022-09-05T05:20:59.620Z,102439.69
2022-09-05T05:23:34.899Z,102440.34
2022-09-05T05:26:07.253Z,102431.06
2022-09-05T05:28:49.462Z,102425.50
2022-09-05T05:31:29.229Z,102416.44
2022-09-05T05:34:03.910Z,102409.25
2022-09-05T05:36:47.228Z,102400.41
2022-09-05T05:39:23.676Z,102403.88
2022-09-05T05:41:54.562Z,102407.31
2022-09-05T05:44:21.287Z,102397.44
2022-09-05T05:46:59.242Z,102405.03
2022-09-05T05:49:53.992Z,102402.56
2022-09-05T05:52:50.074Z,102401.91
2022-09-05T05:55:53.139Z,102381.09
2022-09-05T05:58:32.932Z,102381.44
2022-09-05T06:01:21.911Z,102377.50
2022-09-05T06:04:14.388Z,102365.88
2022-09-05T06:07:15.892Z,102360.09
2022-09-05T06:14:51.621Z,102356.88
2022-09-05T06:14:59.172Z,102337.06
2022-09-05T06:16:37.451Z,102327.78
2022-09-05T06:19:28.938Z,102320.50
2022-09-05T06:22:41.482Z,102309.19
2022-09-05T06:25:36.190Z,102300.28
2022-09-05T06:28:19.057Z,102295.41
2022-09-05T06:31:29.286Z,102281.59
2022-09-05T06:33:57.747Z,102274.66
2022-09-05T06:37:16.640Z,102265.63
2022-09-05T06:40:01.752Z,102269.13
2022-09-05T06:42:53.273Z,102256.06
2022-09-05T06:45:58.593Z,102244.41
2022-09-05T06:48:46.456Z,102238.34
2022-09-05T06:51:44.868Z,102228.34
2022-09-05T06:54:32.531Z,102222.53
2022-09-05T06:57:03.603Z,102225.66
2022-09-05T07:00:02.665Z,102220.50
2022-09-05T07:02:58.965Z,102219.13
2022-09-05T07:05:50.259Z,102215.13
2022-09-05T07:08:35.714Z,102217.59
2022-09-05T07:11:30.963Z,102219.78
2022-09-05T07:14:13.513Z,102221.72
2022-09-05T07:16:47.452Z,102218.75
2022-09-05T07:19:31.647Z,102215.66
2022-09-05T07:22:46.182Z,102217.34
2022-09-05T07:25:18.413Z,102222.88
2022-09-05T07:28:29.028Z,102222.59
2022-09-05T07:31:13.583Z,102221.03
2022-09-05T07:34:20.448Z,102222.16
2022-09-05T07:37:03.072Z,102224.72
2022-09-05T07:40:03.944Z,102229.78
2022-09-05T07:43:08.722Z,102224.09
2022-09-05T07:45:56.129Z,102225.16
2022-09-05T07:48:35.738Z,102219.84
2022-09-05T07:56:52.641Z,102225.84
2022-09-05T07:56:55.619Z,102223.66
2022-09-05T07:57:22.392Z,102222.78
2022-09-05T07:59:41.399Z,102209.59
2022-09-05T08:02:10.897Z,102219.91
2022-09-05T08:04:40.858Z,102213.75
2022-09-05T08:07:49.061Z,102226.69
2022-09-05T08:10:15.634Z,102222.69
2022-09-05T08:13:34.079Z,102217.59
2022-09-05T08:16:11.091Z,102223.03
2022-09-05T08:18:49.897Z,102220.84
2022-09-05T08:21:28.229Z,102220.81
2022-09-05T08:24:17.526Z,102217.31
2022-09-05T08:26:49.681Z,102207.94
2022-09-05T08:29:22.404Z,102213.50
2022-09-05T08:32:08.391Z,102223.28
2022-09-05T08:34:56.966Z,102210.56
2022-09-05T08:37:27.152Z,102210.81
2022-09-05T08:40:11.530Z,102211.50
2022-09-05T08:46:37.150Z,102205.72
2022-09-05T08:46:46.520Z,102211.53
2022-09-05T08:49:38.578Z,102205.91
2022-09-05T08:52:46.592Z,102196.81
2022-09-05T08:56:04.501Z,102202.81
2022-09-05T08:58:49.453Z,102193.47
2022-09-05T09:01:46.583Z,102192.38
2022-09-05T09:05:01.875Z,102184.44
2022-09-05T09:07:51.140Z,102185.19
2022-09-05T09:10:40.977Z,102176.84
2022-09-05T09:13:52.378Z,102169.41
2022-09-05T09:16:31.414Z,102174.22
2022-09-05T09:19:30.756Z,102176.09
2022-09-05T09:22:11.821Z,102177.75
2022-09-05T09:25:14.315Z,102172.56
2022-09-05T09:28:50.436Z,102168.53
2022-09-05T09:30:57.478Z,102162.38
2022-09-05T09:33:38.513Z,102167.69
2022-09-05T09:36:23.770Z,102155.22
2022-09-05T09:39:37.619Z,102154.84
2022-09-05T09:42:32.924Z,102157.50
2022-09-05T09:45:28.648Z,102159.34
2022-09-05T09:48:19.164Z,102153.97
2022-09-05T09:51:01.218Z,102151.69
2022-09-05T09:54:05.464Z,102139.59
2022-09-05T09:56:47.289Z,102152.44
2022-09-05T09:59:54.694Z,102146.19
2022-09-05T10:04:12.525Z,102148.47
2022-09-05T10:10:33.174Z,102145.22
2022-09-05T10:10:43.853Z,102141.59
2022-09-05T10:12:01.215Z,102132.56
2022-09-05T10:14:50.030Z,102133.84
2022-09-05T10:17:17.946Z,102135.28
2022-09-05T10:20:17.029Z,102121.22
2022-09-05T10:22:55.890Z,102129.19
2022-09-05T10:25:47.164Z,102129.22
2022-09-05T10:28:36.365Z,102116.28
2022-09-05T10:32:29.654Z,102120.72
2022-09-05T10:35:16.835Z,102121.19
2022-09-05T10:37:14.759Z,102116.59
2022-09-05T10:39:48.439Z,102121.19
2022-09-05T10:42:43.325Z,102125.31
2022-09-05T10:45:56.093Z,102119.91
2022-09-05T10:48:31.036Z,102118.47
2022-09-05T10:51:08.804Z,102120.91
2022-09-05T10:53:47.505Z,102107.94
2022-09-05T10:56:19.642Z,102109.69
2022-09-05T11:00:30.566Z,102106.41
2022-09-05T11:02:29.183Z,102114.66
2022-09-05T11:05:23.553Z,102114.63
2022-09-05T11:07:53.438Z,102110.34
2022-09-05T11:10:31.509Z,102113.06
2022-09-05T11:13:11.362Z,102103.00
2022-09-05T11:16:03.986Z,102107.50
2022-09-05T11:19:02.370Z,102111.97
2022-09-05T11:21:41.182Z,102111.03
2022-09-05T11:24:27.660Z,102121.66
2022-09-05T11:27:23.820Z,102119.97
2022-09-05T11:29:56.204Z,102104.34
2022-09-05T11:38:30.585Z,102106.41
2022-09-05T11:39:48.632Z,102095.38
2022-09-05T11:40:03.914Z,102102.19
2022-09-05T11:42:08.908Z,102090.34
2022-09-05T11:44:54.021Z,102106.88
2022-09-05T11:47:47.515Z,102105.63
2022-09-05T11:50:26.365Z,102088.97
2022-09-05T11:53:11.568Z,102082.28
2022-09-05T11:55:53.476Z,102083.50
2022-09-05T11:58:49.236Z,102082.38
2022-09-05T12:04:15.871Z,102075.28
2022-09-05T12:06:56.775Z,102083.41
2022-09-05T12:09:46.269Z,102080.88
2022-09-05T12:12:41.139Z,102083.78
2022-09-05T12:15:34.461Z,102077.91
2022-09-05T12:18:42.249Z,102076.56
2022-09-05T12:21:17.491Z,102071.31
2022-09-05T12:24:49.782Z,102069.06
2022-09-05T12:27:40.716Z,102069.53
2022-09-05T12:29:59.595Z,102070.63
2022-09-05T12:33:52.280Z,102070.63
2022-09-05T12:36:09.705Z,102052.59
2022-09-05T12:40:57.720Z,102069.25
2022-09-05T12:41:35.368Z,102075.81
2022-09-05T12:41:39.049Z,102065.72
2022-09-05T12:44:44.398Z,102058.78
2022-09-05T12:47:19.329Z,102054.28
2022-09-05T12:50:14.528Z,102057.69
2022-09-05T12:52:50.525Z,102053.56
2022-09-05T12:55:17.216Z,102047.72
2022-09-05T13:02:22.084Z,102050.38
2022-09-05T13:03:01.948Z,102047.50
2022-09-05T13:03:34.340Z,102050.44
2022-09-05T13:06:25.119Z,102051.13
2022-09-05T13:09:00.437Z,102048.22
2022-09-05T13:14:47.398Z,102052.13
2022-09-05T13:15:02.403Z,102046.63
2022-09-05T13:17:27.293Z,102045.19
2022-09-05T13:19:55.505Z,102034.50
2022-09-05T13:22:25.715Z,102048.50
2022-09-05T13:25:07.330Z,102054.53
2022-09-05T13:27:40.792Z,102057.28
2022-09-05T13:31:40.699Z,102048.81
2022-09-05T13:38:16.417Z,102052.44
2022-09-05T13:38:30.881Z,102046.75
2022-09-05T13:39:10.880Z,102037.28
2022-09-05T13:41:44.928Z,102034.13
2022-09-05T13:44:25.370Z,102041.19
2022-09-05T13:47:31.628Z,102037.78
2022-09-05T13:50:23.165Z,102028.28
2022-09-05T13:53:02.306Z,102036.25
2022-09-05T13:55:38.943Z,102031.50
2022-09-05T13:58:42.733Z,102029.47
2022-09-05T14:01:36.091Z,102035.41
2022-09-05T14:07:46.185Z,102030.84
2022-09-05T14:10:16.180Z,102039.28
2022-09-05T14:13:11.639Z,102014.31
2022-09-05T14:15:52.648Z,102019.41
2022-09-05T14:19:04.776Z,102011.81
2022-09-05T14:21:36.868Z,102013.16
2022-09-05T14:24:09.793Z,102008.09
2022-09-05T14:26:55.305Z,102003.09
2022-09-05T14:29:40.878Z,102002.53
2022-09-05T14:37:41.028Z,101999.22
2022-09-05T14:37:43.228Z,101996.28
2022-09-05T14:38:15.365Z,102001.25
2022-09-05T14:41:24.900Z,101996.81
2022-09-05T14:44:07.796Z,101999.91
2022-09-05T14:46:49.839Z,101989.16
2022-09-05T14:49:43.165Z,101985.38
2022-09-05T14:52:23.612Z,101989.03
2022-09-05T15:02:38.503Z,101977.34
2022-09-05T15:02:51.310Z,101981.84
2022-09-05T15:06:35.542Z,101972.03
2022-09-05T15:12:16.998Z,101963.44
2022-09-05T15:12:27.795Z,101973.00
2022-09-05T15:14:45.500Z,101976.19
2022-09-05T15:17:21.679Z,101967.50
2022-09-05T15:20:06.879Z,101959.69
2022-09-05T15:22:47.925Z,101957.31
2022-09-05T15:25:17.218Z,101971.13
2022-09-05T15:27:46.376Z,101958.53
2022-09-05T15:30:35.167Z,101973.06
2022-09-05T15:33:25.415Z,101953.03
2022-09-05T15:35:53.187Z,101950.47
2022-09-05T15:38:31.037Z,101950.78
2022-09-05T15:41:19.599Z,101962.69
2022-09-05T15:43:58.304Z,101963.84
2022-09-05T15:46:36.361Z,101955.09
2022-09-05T15:49:06.575Z,101950.44
2022-09-05T15:51:48.677Z,101945.38
2022-09-05T15:54:36.000Z,101958.56
2022-09-05T15:57:08.988Z,101960.00
2022-09-05T15:59:49.660Z,101961.53
2022-09-05T16:02:27.018Z,101954.25
2022-09-05T16:10:27.143Z,101955.69
2022-09-05T16:10:49.146Z,101959.84
2022-09-05T16:12:00.471Z,101962.28
2022-09-05T16:14:26.100Z,101957.00
2022-09-05T16:23:13.033Z,101951.69
2022-09-05T16:23:26.207Z,101958.81
2022-09-05T16:23:33.824Z,101955.28
2022-09-05T16:25:42.025Z,101952.56
2022-09-05T16:28:19.785Z,101945.03
2022-09-05T16:30:48.213Z,101949.28
2022-09-05T16:33:28.247Z,101948.81
2022-09-05T16:36:17.471Z,101945.25
2022-09-05T16:38:53.231Z,101948.44
2022-09-05T16:41:24.538Z,101953.00
2022-09-05T16:44:07.907Z,101948.81
2022-09-05T16:46:40.779Z,101952.38
2022-09-05T16:49:12.094Z,101948.19
2022-09-05T16:51:45.501Z,101947.59
2022-09-05T16:54:33.365Z,101945.59
2022-09-05T16:57:04.304Z,101947.53
2022-09-05T16:59:38.012Z,101945.44
2022-09-05T17:02:28.543Z,101944.81
2022-09-05T17:05:12.932Z,101944.03
2022-09-05T17:07:45.595Z,101943.53
2022-09-05T17:10:17.962Z,101937.13
2022-09-05T17:12:44.757Z,101938.06
2022-09-05T17:15:16.837Z,101937.91
2022-09-05T17:18:20.239Z,101938.50
2022-09-05T17:20:36.999Z,101935.53
2022-09-05T17:29:20.568Z,101943.06
2022-09-05T17:29:25.497Z,101938.66
2022-09-05T17:29:34.294Z,101937.28
2022-09-05T17:31:59.432Z,101936.56
2022-09-05T17:34:54.604Z,101937.38
2022-09-05T17:37:49.122Z,101938.25
2022-09-05T17:40:42.731Z,101934.59
2022-09-05T17:43:13.210Z,101938.78
2022-09-05T17:45:56.788Z,101938.78
2022-09-05T17:49:05.315Z,101933.13
2022-09-05T17:51:35.165Z,101937.41
2022-09-05T17:54:03.208Z,101933.66
2022-09-05T17:56:38.890Z,101930.75
2022-09-05T17:59:17.702Z,101935.69
2022-09-05T18:02:03.207Z,101933.25
2022-09-05T18:04:50.666Z,101935.75
2022-09-05T18:07:26.494Z,101934.47
2022-09-05T18:10:11.850Z,101941.75
2022-09-05T18:15:27.514Z,101945.53
2022-09-05T18:17:54.583Z,101950.78
2022-09-05T18:20:27.741Z,101954.88
2022-09-05T18:23:15.805Z,101943.19
2022-09-05T18:26:14.173Z,101954.63
2022-09-05T18:29:06.005Z,101960.16
2022-09-05T18:31:40.872Z,101956.41
2022-09-05T18:34:15.350Z,101956.41
2022-09-05T18:36:44.839Z,101958.03
2022-09-05T18:39:38.154Z,101965.84
2022-09-05T18:42:33.219Z,101969.56
2022-09-05T18:45:16.213Z,101969.13
2022-09-05T18:47:59.049Z,101972.72
2022-09-05T18:50:32.360Z,101966.78
2022-09-05T18:53:09.517Z,101979.22
2022-09-05T18:56:14.181Z,101981.81
2022-09-05T18:58:51.706Z,101986.13
2022-09-05T19:01:36.449Z,101989.00
2022-09-05T19:04:08.726Z,101987.31
2022-09-05T19:06:45.227Z,101979.66
2022-09-05T19:09:26.610Z,101976.50
2022-09-05T19:12:00.542Z,101989.13
2022-09-05T19:14:59.905Z,101980.81
2022-09-05T19:17:46.879Z,101993.72
2022-09-05T19:20:32.645Z,101998.13
2022-09-05T19:23:11.272Z,101990.13
2022-09-05T19:25:44.562Z,101987.19
2022-09-05T19:36:44.369Z,101986.81
2022-09-05T19:36:57.052Z,101986.69
2022-09-05T19:37:02.460Z,101995.25
2022-09-05T19:37:28.923Z,101999.78
2022-09-05T19:43:33.098Z,101997.03
2022-09-05T19:47:36.729Z,101998.25
2022-09-05T19:47:45.139Z,102004.91
2022-09-05T19:48:34.511Z,102021.38
2022-09-05T19:51:17.527Z,102018.25
2022-09-05T19:54:04.610Z,102030.00
2022-09-05T19:56:57.427Z,102037.78
2022-09-05T19:59:38.189Z,102039.91
2022-09-05T20:02:14.133Z,102042.16
2022-09-05T20:04:53.293Z,102035.84
2022-09-05T20:07:22.689Z,102033.25
2022-09-05T20:09:51.691Z,102028.69
2022-09-05T20:12:37.556Z,102026.72
2022-09-05T20:15:35.781Z,102014.44
2022-09-05T20:18:22.506Z,102002.00
2022-09-05T20:20:51.893Z,102027.28
2022-09-05T20:23:19.826Z,102025.16
2022-09-05T20:25:48.303Z,102032.56
2022-09-05T20:28:18.645Z,102032.34
2022-09-05T20:30:48.960Z,102022.16
2022-09-05T20:33:23.701Z,102028.25
2022-09-05T20:42:23.256Z,102015.78
2022-09-05T20:43:20.654Z,102018.25
2022-09-05T20:43:30.344Z,102018.72
2022-09-05T20:44:25.099Z,102007.25
2022-09-05T20:52:08.866Z,102009.06
2022-09-05T20:54:15.841Z,102008.41
2022-09-05T20:54:17.372Z,102013.97
2022-09-05T20:56:07.766Z,102015.34
2022-09-05T20:58:38.095Z,102015.53
2022-09-05T21:01:22.182Z,102018.63
2022-09-05T21:03:59.658Z,102018.78
2022-09-05T21:06:34.898Z,102022.59
2022-09-05T21:09:24.248Z,102020.19
2022-09-05T21:11:53.378Z,102024.25
2022-09-05T21:14:21.974Z,102023.19
2022-09-05T21:16:58.321Z,102017.94
2022-09-05T21:19:30.128Z,102015.09
2022-09-05T21:22:09.825Z,102012.19
2022-09-05T21:24:36.858Z,102012.25
2022-09-05T21:27:24.038Z,102010.72
2022-09-05T21:29:59.029Z,102007.25
2022-09-05T21:32:30.270Z,102004.50
2022-09-05T21:35:33.847Z,101989.25
2022-09-05T21:37:54.304Z,101988.31
2022-09-05T21:40:21.641Z,101983.91
2022-09-05T21:47:34.366Z,101982.22
2022-09-05T21:47:42.803Z,101994.13
2022-09-05T21:48:24.487Z,101997.19
2022-09-05T21:50:54.301Z,101980.25
2022-09-05T21:59:13.276Z,101977.66
2022-09-05T21:59:28.803Z,101976.63
2022-09-05T21:59:36.619Z,101972.34
2022-09-05T22:02:05.325Z,101971.56
2022-09-05T22:04:41.225Z,101971.56
2022-09-05T22:07:14.346Z,101971.91
2022-09-05T22:09:41.169Z,101972.50
2022-09-05T22:12:23.198Z,101979.03
2022-09-05T22:14:58.026Z,101968.13
2022-09-05T22:17:39.437Z,101967.19
2022-09-05T22:20:08.601Z,101969.94
2022-09-05T22:22:38.105Z,101970.78
2022-09-05T22:25:13.367Z,101977.41
2022-09-05T22:27:43.808Z,101968.88
2022-09-05T22:30:13.467Z,101959.22
2022-09-05T22:32:40.337Z,101963.09
2022-09-05T22:35:18.519Z,101958.91
2022-09-05T22:38:00.466Z,101956.44
2022-09-05T22:40:29.159Z,101952.31
2022-09-05T22:42:57.553Z,101952.13
2022-09-05T22:45:25.087Z,101953.16
2022-09-05T22:47:52.531Z,101945.94
2022-09-05T22:50:19.628Z,101938.03
2022-09-05T22:52:46.411Z,101925.66
2022-09-05T22:55:13.349Z,101923.91
2022-09-05T22:57:40.945Z,101922.19
2022-09-05T23:00:09.293Z,101923.16
2022-09-05T23:02:36.189Z,101924.41
2022-09-05T23:05:04.480Z,101915.72
2022-09-05T23:07:32.651Z,101906.19
2022-09-05T23:09:59.604Z,101910.81
2022-09-05T23:12:26.549Z,101911.59
2022-09-05T23:14:53.379Z,101906.03
2022-09-05T23:17:20.210Z,101909.00
2022-09-05T23:19:46.933Z,101913.66
2022-09-05T23:22:13.685Z,101905.97
2022-09-05T23:24:40.479Z,101902.88
2022-09-05T23:27:07.193Z,101898.81
2022-09-05T23:29:34.032Z,101893.56
2022-09-05T23:32:00.837Z,101886.00
2022-09-05T23:34:27.640Z,101887.88
2022-09-05T23:36:54.511Z,101886.22
2022-09-05T23:39:21.257Z,101885.31
2022-09-05T23:41:48.051Z,101879.81
2022-09-05T23:44:14.786Z,101878.25
2022-09-05T23:46:41.549Z,101863.44
2022-09-05T23:49:08.343Z,101869.97
2022-09-05T23:51:35.270Z,101871.91
2022-09-05T23:54:02.143Z,101868.56
2022-09-05T23:56:29.101Z,101868.63
2022-09-05T23:58:55.892Z,101867.00
